Terminal Aerodrome Forecast
Issued by NWS

Home | Current Version | Previous Version | Graphics & Text | Print | Product List | Glossary On
Versions: 1 2 3 4 5 6 7 8 9 10 11 12 13 14 15 16 17 18 19
000
FTUS43 KABR 221100
TAFPIR
TAF
KPIR 221128Z 2212/2312 15006KT P6SM SKC
     FM221800 15018G25KT P6SM SKC
     FM230000 14015KT P6SM BKN130=

USA.gov is the U.S. government's official web portal to all federal, state and local government web resources and services.